createdAt,value
2018-06-01T00:01:05.385Z,99.90
2018-06-01T00:03:34.659Z,99.90
2018-06-01T00:06:04.742Z,99.90
2018-06-01T00:08:34.027Z,99.90
2018-06-01T00:11:03.314Z,99.90
2018-06-01T00:13:33.484Z,99.90
2018-06-01T00:16:04.282Z,99.90
2018-06-01T00:18:33.557Z,99.90
2018-06-01T00:21:04.279Z,99.90
2018-06-01T00:23:34.313Z,99.90
2018-06-01T00:26:03.566Z,99.90
2018-06-01T00:28:32.871Z,99.40
2018-06-01T00:31:02.139Z,98.10
2018-06-01T00:33:32.726Z,98.80
2018-06-01T00:36:02.772Z,99.90
2018-06-01T00:38:32.017Z,99.90
2018-06-01T00:41:02.174Z,99.90
2018-06-01T00:43:32.225Z,99.90
2018-06-01T00:46:01.563Z,99.90
2018-06-01T00:48:30.845Z,99.90
2018-06-01T00:51:00.110Z,99.90
2018-06-01T00:53:29.376Z,99.90
2018-06-01T00:55:59.414Z,99.90
2018-06-01T00:58:28.671Z,99.90
2018-06-01T01:00:57.929Z,99.90
2018-06-01T01:03:27.180Z,99.90
2018-06-01T01:05:56.456Z,99.90
2018-06-01T01:08:25.810Z,99.90
2018-06-01T01:10:55.879Z,99.90
2018-06-01T01:13:25.160Z,99.90
2018-06-01T01:15:54.435Z,99.90
2018-06-01T01:18:23.735Z,99.90
2018-06-01T01:20:53.130Z,99.90
2018-06-01T01:23:22.473Z,99.90
2018-06-01T01:25:51.737Z,99.90
2018-06-01T01:28:21.039Z,99.90
2018-06-01T01:30:50.290Z,99.90
2018-06-01T01:33:19.555Z,99.90
2018-06-01T01:35:48.881Z,99.90
2018-06-01T01:38:18.173Z,99.90
2018-06-01T01:41:03.752Z,99.90
2018-06-01T01:43:33.015Z,99.90
2018-06-01T01:46:02.304Z,99.90
2018-06-01T01:48:32.323Z,99.90
2018-06-01T01:51:02.384Z,99.90
2018-06-01T01:53:31.688Z,99.90
2018-06-01T01:56:00.922Z,99.90
2018-06-01T01:58:30.232Z,99.90
2018-06-01T02:01:04.164Z,99.90
2018-06-01T02:03:33.496Z,99.90
2018-06-01T02:06:02.791Z,99.90
2018-06-01T02:08:32.089Z,99.90
2018-06-01T02:11:01.337Z,99.90
2018-06-01T02:13:31.413Z,99.90
2018-06-01T02:16:00.666Z,99.90
2018-06-01T02:18:30.741Z,99.90
2018-06-01T02:20:59.967Z,99.90
2018-06-01T02:23:30.760Z,99.90
2018-06-01T02:26:00.027Z,99.90
2018-06-01T02:28:30.061Z,99.90
2018-06-01T02:30:59.379Z,99.90
2018-06-01T02:33:28.625Z,99.90
2018-06-01T02:35:58.663Z,99.90
2018-06-01T02:38:28.722Z,99.90
2018-06-01T02:40:58.012Z,99.90
2018-06-01T02:43:27.261Z,99.90
2018-06-01T02:45:57.294Z,99.90
2018-06-01T02:48:26.578Z,99.90
2018-06-01T02:50:56.695Z,99.90
2018-06-01T02:53:26.790Z,99.90
2018-06-01T02:55:56.062Z,99.90
2018-06-01T02:58:25.338Z,99.90
2018-06-01T03:03:30.798Z,99.90
2018-06-01T03:06:00.793Z,99.90
2018-06-01T03:08:30.129Z,99.90
2018-06-01T03:11:00.167Z,99.90
2018-06-01T03:13:29.404Z,99.90
2018-06-01T03:15:59.462Z,99.90
2018-06-01T03:18:29.476Z,99.90
2018-06-01T03:20:58.740Z,99.90
2018-06-01T03:23:28.009Z,99.90
2018-06-01T03:25:57.401Z,99.90
2018-06-01T03:28:26.650Z,99.90
2018-06-01T03:30:56.695Z,99.90
2018-06-01T03:33:26.766Z,99.90
2018-06-01T03:35:56.039Z,99.90
2018-06-01T03:38:25.352Z,99.90
2018-06-01T03:40:54.620Z,99.90
2018-06-01T03:43:23.907Z,99.90
2018-06-01T03:45:53.930Z,99.90
2018-06-01T03:48:23.320Z,99.90
2018-06-01T03:50:53.325Z,99.90
2018-06-01T03:53:23.370Z,99.90
2018-06-01T03:55:52.629Z,99.90
2018-06-01T03:58:21.918Z,99.90
2018-06-01T04:00:51.238Z,99.90
2018-06-01T04:03:20.498Z,99.90
2018-06-01T04:05:49.756Z,99.90
2018-06-01T04:08:19.874Z,99.90
2018-06-01T04:10:49.905Z,99.90
2018-06-01T04:13:19.917Z,99.90
2018-06-01T04:15:49.930Z,99.90
2018-06-01T04:18:20.042Z,99.90
2018-06-01T04:20:50.055Z,99.90
2018-06-01T04:23:19.665Z,99.90
2018-06-01T04:25:49.701Z,99.90
2018-06-01T04:28:19.730Z,99.90
2018-06-01T04:30:49.019Z,99.90
2018-06-01T04:33:18.333Z,99.90
2018-06-01T04:35:47.629Z,99.90
2018-06-01T04:38:16.917Z,99.90
2018-06-01T04:40:46.947Z,99.90
2018-06-01T04:43:16.210Z,99.90
2018-06-01T04:45:45.474Z,99.90
2018-06-01T04:48:14.728Z,99.90
2018-06-01T04:50:44.061Z,99.90
2018-06-01T04:53:13.271Z,99.90
2018-06-01T04:55:44.102Z,99.90
2018-06-01T04:58:13.369Z,99.90
2018-06-01T05:00:43.428Z,99.90
2018-06-01T05:03:12.710Z,99.90
2018-06-01T05:05:41.975Z,99.90
2018-06-01T05:08:11.998Z,99.90
2018-06-01T05:10:42.023Z,99.90
2018-06-01T05:13:11.302Z,99.90
2018-06-01T05:15:41.348Z,99.90
2018-06-01T05:18:10.686Z,99.90
2018-06-01T05:20:39.941Z,99.90
2018-06-01T05:23:09.254Z,99.90
2018-06-01T05:25:38.578Z,99.90
2018-06-01T05:28:08.695Z,99.90
2018-06-01T05:30:37.964Z,99.90
2018-06-01T05:33:07.284Z,99.90
2018-06-01T05:35:36.577Z,99.90
2018-06-01T05:38:05.846Z,99.90
2018-06-01T05:40:35.872Z,99.90
2018-06-01T05:43:05.911Z,99.90
2018-06-01T05:45:35.348Z,99.90
2018-06-01T05:48:04.610Z,99.90
2018-06-01T05:50:33.857Z,99.90
2018-06-01T05:53:03.137Z,99.90
2018-06-01T05:55:33.026Z,99.90
2018-06-01T05:58:02.370Z,99.90
2018-06-01T06:00:31.681Z,99.90
2018-06-01T06:03:00.941Z,99.90
2018-06-01T06:05:30.224Z,99.90
2018-06-01T06:08:00.262Z,99.90
2018-06-01T06:10:29.634Z,99.90
2018-06-01T06:12:58.935Z,99.90
2018-06-01T06:15:28.958Z,99.90
2018-06-01T06:17:58.223Z,99.90
2018-06-01T06:20:29.508Z,99.90
2018-06-01T06:22:58.786Z,99.90
2018-06-01T06:25:28.996Z,99.90
2018-06-01T06:27:59.799Z,99.90
2018-06-01T06:30:29.058Z,99.90
2018-06-01T06:32:59.114Z,99.90
2018-06-01T06:35:28.766Z,99.90
2018-06-01T06:37:58.812Z,99.90
2018-06-01T06:40:28.068Z,99.90
2018-06-01T06:42:57.362Z,99.90
2018-06-01T06:45:26.654Z,99.90
2018-06-01T06:47:55.915Z,99.90
2018-06-01T06:50:25.346Z,99.90
2018-06-01T06:52:54.901Z,99.90
2018-06-01T06:55:24.232Z,99.90
2018-06-01T06:57:53.499Z,99.90
2018-06-01T07:00:22.865Z,99.90
2018-06-01T07:02:52.488Z,99.90
2018-06-01T07:05:23.271Z,99.90
2018-06-01T07:07:52.588Z,99.90
2018-06-01T07:10:21.841Z,99.90
2018-06-01T07:12:51.867Z,99.90
2018-06-01T07:15:21.921Z,99.90
2018-06-01T07:17:51.200Z,99.90
2018-06-01T07:20:20.494Z,99.90
2018-06-01T07:22:50.507Z,99.90
2018-06-01T07:25:19.776Z,99.90
2018-06-01T07:27:50.562Z,99.90
2018-06-01T07:30:19.830Z,99.90
2018-06-01T07:32:49.872Z,99.90
2018-06-01T07:35:19.164Z,99.90
2018-06-01T07:37:49.934Z,99.90
2018-06-01T07:40:19.239Z,99.90
2018-06-01T07:42:48.719Z,99.90
2018-06-01T07:45:18.173Z,99.90
2018-06-01T07:47:47.463Z,99.90
2018-06-01T07:50:16.722Z,99.90
2018-06-01T07:52:45.997Z,99.90
2018-06-01T07:55:16.053Z,99.90
2018-06-01T07:57:45.334Z,99.90
2018-06-01T08:00:14.608Z,99.90
2018-06-01T08:02:44.763Z,99.90
2018-06-01T08:05:14.066Z,99.90
2018-06-01T08:07:43.332Z,99.90
2018-06-01T08:10:12.754Z,99.90
2018-06-01T08:12:42.042Z,99.90
2018-06-01T08:15:12.088Z,99.90
2018-06-01T08:17:41.617Z,99.90
2018-06-01T08:20:10.883Z,99.90
2018-06-01T08:22:40.182Z,99.90
2018-06-01T08:25:10.177Z,99.90
2018-06-01T08:27:40.227Z,99.90
2018-06-01T08:30:09.607Z,99.90
2018-06-01T08:32:39.637Z,99.90
2018-06-01T08:35:08.989Z,99.90
2018-06-01T08:37:38.245Z,99.90
2018-06-01T08:40:07.498Z,99.90
2018-06-01T08:42:36.772Z,99.90
2018-06-01T08:45:06.060Z,99.90
2018-06-01T08:47:35.340Z,99.90
2018-06-01T08:50:04.645Z,99.90
2018-06-01T08:52:33.980Z,99.90
2018-06-01T08:55:03.252Z,99.90
2018-06-01T08:57:32.526Z,99.90
2018-06-01T09:00:01.810Z,99.90
2018-06-01T09:02:31.868Z,99.90
2018-06-01T09:05:01.145Z,99.90
2018-06-01T09:07:30.458Z,99.90
2018-06-01T09:09:59.846Z,99.90
2018-06-01T09:12:29.050Z,99.90
2018-06-01T09:14:58.485Z,99.90
2018-06-01T09:17:27.753Z,99.90
2018-06-01T09:19:57.070Z,99.90
2018-06-01T09:22:26.357Z,99.90
2018-06-01T09:24:56.397Z,99.90
2018-06-01T09:27:25.793Z,99.90
2018-06-01T09:29:55.090Z,99.80
2018-06-01T09:32:24.374Z,99.00
2018-06-01T09:34:54.495Z,99.60
2018-06-01T09:37:25.359Z,99.90
2018-06-01T09:39:54.962Z,99.90
2018-06-01T09:42:24.353Z,99.90
2018-06-01T09:44:53.593Z,99.90
2018-06-01T09:47:22.879Z,99.90
2018-06-01T09:49:52.181Z,99.40
2018-06-01T09:52:21.501Z,99.90
2018-06-01T09:54:50.727Z,98.20
2018-06-01T09:57:20.067Z,98.10
2018-06-01T09:59:50.098Z,98.10
2018-06-01T10:02:19.423Z,98.10
2018-06-01T10:04:48.726Z,98.40
2018-06-01T10:07:18.010Z,98.40
2018-06-01T10:09:52.828Z,94.70
2018-06-01T10:12:22.151Z,92.90
2018-06-01T10:14:52.984Z,92.60
2018-06-01T10:17:22.278Z,92.60
2018-06-01T10:19:51.575Z,93.00
2018-06-01T10:22:20.846Z,92.20
2018-06-01T10:24:50.178Z,92.60
2018-06-01T10:27:19.435Z,94.30
2018-06-01T10:29:48.731Z,95.00
2018-06-01T10:32:18.752Z,95.30
2018-06-01T10:34:48.042Z,95.30
2018-06-01T10:37:18.090Z,99.90
2018-06-01T10:39:47.411Z,99.90
2018-06-01T10:42:16.713Z,99.90
2018-06-01T10:44:45.971Z,99.90
2018-06-01T10:47:15.686Z,99.90
2018-06-01T10:49:44.946Z,99.90
2018-06-01T10:52:14.243Z,99.90
2018-06-01T10:54:43.540Z,99.90
2018-06-01T10:57:13.421Z,99.90
2018-06-01T10:59:42.834Z,99.90
2018-06-01T11:02:12.190Z,99.90
2018-06-01T11:04:41.606Z,99.90
2018-06-01T11:07:10.866Z,99.90
2018-06-01T11:09:40.159Z,99.90
2018-06-01T11:12:09.773Z,99.90
2018-06-01T11:14:39.053Z,99.90
2018-06-01T11:17:08.855Z,99.90
2018-06-01T11:19:38.146Z,99.90
2018-06-01T11:22:07.452Z,99.90
2018-06-01T11:24:36.720Z,99.90
2018-06-01T11:27:06.863Z,99.90
2018-06-01T11:29:36.066Z,99.90
2018-06-01T11:32:05.354Z,99.90
2018-06-01T11:34:34.643Z,99.90
2018-06-01T11:37:03.898Z,99.90
2018-06-01T11:39:33.943Z,99.90
2018-06-01T11:42:03.975Z,99.50
2018-06-01T11:44:33.236Z,99.40
2018-06-01T11:47:02.509Z,99.60
2018-06-01T11:49:31.783Z,99.90
2018-06-01T11:52:01.101Z,99.10
2018-06-01T11:54:30.377Z,99.90
2018-06-01T11:57:00.401Z,99.90
2018-06-01T11:59:29.697Z,99.90
2018-06-01T12:01:58.980Z,99.40
2018-06-01T12:04:29.047Z,96.70
2018-06-01T12:06:58.325Z,96.80
2018-06-01T12:09:27.594Z,95.60
2018-06-01T12:11:57.638Z,94.60
2018-06-01T12:14:26.952Z,94.50
2018-06-01T12:16:56.231Z,94.50
2018-06-01T12:19:25.556Z,94.50
2018-06-01T12:21:54.835Z,94.20
2018-06-01T12:24:24.113Z,93.10
2018-06-01T12:26:53.485Z,93.40
2018-06-01T12:29:22.832Z,92.80
2018-06-01T12:31:51.992Z,93.50
2018-06-01T12:34:21.439Z,93.00
2018-06-01T12:36:50.716Z,93.30
2018-06-01T12:39:20.746Z,94.90
2018-06-01T12:41:50.800Z,97.10
2018-06-01T12:44:20.059Z,97.10
2018-06-01T12:46:49.333Z,95.70
2018-06-01T12:49:18.638Z,97.40
2018-06-01T12:51:48.160Z,94.50
2018-06-01T12:54:17.715Z,94.60
2018-06-01T12:56:47.105Z,94.30
2018-06-01T12:59:16.406Z,93.00
2018-06-01T13:01:45.625Z,93.10
2018-06-01T13:04:14.957Z,93.40
2018-06-01T13:06:44.243Z,92.60
2018-06-01T13:09:13.542Z,93.00
2018-06-01T13:11:42.819Z,91.40
2018-06-01T13:14:12.180Z,91.10
2018-06-01T13:16:42.190Z,90.60
2018-06-01T13:19:11.506Z,90.60
2018-06-01T13:21:41.529Z,92.20
2018-06-01T13:24:10.786Z,92.20
2018-06-01T13:26:40.067Z,92.70
2018-06-01T13:29:09.358Z,91.60
2018-06-01T13:31:38.661Z,91.30
2018-06-01T13:34:07.914Z,90.80
2018-06-01T13:36:38.040Z,89.70
2018-06-01T13:39:08.260Z,89.80
2018-06-01T13:41:37.565Z,88.60
2018-06-01T13:44:06.858Z,85.30
2018-06-01T13:46:36.902Z,86.80
2018-06-01T13:49:06.175Z,87.00
2018-06-01T13:51:36.189Z,87.40
2018-06-01T13:54:06.227Z,86.90
2018-06-01T13:56:35.541Z,86.90
2018-06-01T13:59:04.824Z,87.00
2018-06-01T14:01:34.085Z,85.90
2018-06-01T14:04:03.383Z,88.50
2018-06-01T14:06:32.673Z,88.60
2018-06-01T14:09:01.933Z,89.50
2018-06-01T14:11:31.241Z,89.80
2018-06-01T14:14:01.261Z,90.50
2018-06-01T14:16:30.591Z,88.40
2018-06-01T14:18:59.891Z,87.80
2018-06-01T14:21:29.185Z,89.60
2018-06-01T14:23:58.646Z,92.40
2018-06-01T14:26:27.944Z,91.10
2018-06-01T14:28:57.991Z,90.60
2018-06-01T14:31:27.255Z,90.70
2018-06-01T14:33:57.281Z,90.00
2018-06-01T14:36:27.350Z,86.20
2018-06-01T14:38:56.647Z,86.20
2018-06-01T14:41:25.900Z,85.50
2018-06-01T14:43:55.173Z,84.30
2018-06-01T14:46:25.405Z,82.60
2018-06-01T14:48:54.973Z,82.40
2018-06-01T14:51:24.283Z,83.90
2018-06-01T14:53:53.614Z,84.30
2018-06-01T14:56:23.672Z,84.40
2018-06-01T14:58:52.938Z,84.30
2018-06-01T15:01:22.199Z,84.20
2018-06-01T15:03:51.659Z,85.40
2018-06-01T15:06:21.105Z,85.90
2018-06-01T15:08:50.795Z,86.50
2018-06-01T15:11:20.269Z,87.30
2018-06-01T15:13:49.627Z,89.40
2018-06-01T15:16:18.854Z,89.30
2018-06-01T15:18:48.253Z,87.40
2018-06-01T15:21:18.290Z,86.30
2018-06-01T15:23:47.552Z,86.40
2018-06-01T15:26:16.908Z,86.50
2018-06-01T15:28:46.774Z,86.40
2018-06-01T15:31:16.050Z,87.40
2018-06-01T15:33:45.342Z,86.00
2018-06-01T15:36:14.625Z,89.80
2018-06-01T15:38:43.887Z,90.00
2018-06-01T15:41:13.199Z,89.90
2018-06-01T15:43:42.550Z,90.40
2018-06-01T15:46:11.829Z,89.00
2018-06-01T15:48:41.132Z,90.70
2018-06-01T15:51:10.437Z,87.90
2018-06-01T15:53:39.769Z,89.60
2018-06-01T15:56:09.081Z,88.30
2018-06-01T15:58:39.236Z,90.10
2018-06-01T16:01:08.482Z,90.10
2018-06-01T16:03:37.856Z,90.80
2018-06-01T16:06:07.203Z,90.10
2018-06-01T16:08:36.493Z,90.80
2018-06-01T16:11:05.790Z,92.00
2018-06-01T16:13:35.389Z,90.50
2018-06-01T16:16:04.662Z,91.30
2018-06-01T16:18:33.962Z,90.90
2018-06-01T16:21:03.254Z,90.60
2018-06-01T16:23:32.536Z,90.40
2018-06-01T16:26:01.862Z,90.30
2018-06-01T16:28:31.889Z,90.50
2018-06-01T16:31:01.196Z,90.50
2018-06-01T16:33:30.477Z,91.20
2018-06-01T16:35:59.780Z,90.30
2018-06-01T16:38:29.058Z,90.60
2018-06-01T16:40:58.399Z,90.50
2018-06-01T16:43:27.662Z,91.10
2018-06-01T16:45:56.961Z,89.70
2018-06-01T16:48:26.388Z,90.60
2018-06-01T16:50:55.665Z,90.20
2018-06-01T16:53:25.827Z,91.30
2018-06-01T16:55:55.164Z,91.30
2018-06-01T16:58:25.225Z,92.10
2018-06-01T17:00:54.510Z,91.80
2018-06-01T17:03:24.593Z,92.80
2018-06-01T17:05:54.578Z,92.80
2018-06-01T17:08:23.918Z,93.60
2018-06-01T17:10:53.195Z,93.50
2018-06-01T17:13:23.250Z,92.50
2018-06-01T17:15:53.282Z,92.50
2018-06-01T17:18:22.690Z,92.50
2018-06-01T17:20:52.016Z,92.40
2018-06-01T17:23:21.517Z,92.80
2018-06-01T17:25:50.790Z,92.70
2018-06-01T17:28:20.047Z,92.70
2018-06-01T17:30:49.874Z,94.80
2018-06-01T17:33:19.205Z,94.70
2018-06-01T17:35:48.458Z,95.80
2018-06-01T17:38:17.787Z,95.50
2018-06-01T17:40:47.844Z,95.00
2018-06-01T17:43:17.223Z,95.00
2018-06-01T17:45:46.531Z,96.60
2018-06-01T17:48:16.149Z,97.70
2018-06-01T17:50:45.473Z,98.80
2018-06-01T17:53:14.752Z,99.50
2018-06-01T17:55:44.058Z,98.50
2018-06-01T17:58:13.355Z,98.60
2018-06-01T18:00:42.641Z,99.40
2018-06-01T18:03:11.912Z,99.70
2018-06-01T18:05:41.971Z,99.90
2018-06-01T18:08:11.608Z,99.90
2018-06-01T18:10:41.211Z,99.90
2018-06-01T18:13:10.476Z,99.90
2018-06-01T18:15:39.961Z,99.90
2018-06-01T18:18:10.148Z,99.90
2018-06-01T18:20:39.465Z,99.90
2018-06-01T18:23:08.828Z,99.90
2018-06-01T18:25:38.153Z,99.90
2018-06-01T18:28:07.486Z,99.90
2018-06-01T18:30:37.574Z,99.90
2018-06-01T18:33:06.900Z,99.90
2018-06-01T18:35:37.472Z,99.90
2018-06-01T18:38:06.727Z,99.90
2018-06-01T18:40:36.774Z,99.90
2018-06-01T18:43:06.064Z,99.90
2018-06-01T18:45:35.376Z,99.90
2018-06-01T18:48:04.645Z,99.90
2018-06-01T18:50:34.677Z,99.90
2018-06-01T18:53:04.698Z,99.90
2018-06-01T18:55:34.040Z,99.90
2018-06-01T18:58:03.320Z,99.90
2018-06-01T19:00:32.596Z,99.90
2018-06-01T19:03:01.861Z,99.90
2018-06-01T19:05:31.920Z,99.90
2018-06-01T19:08:01.961Z,99.90
2018-06-01T19:10:31.205Z,99.90
2018-06-01T19:13:01.267Z,99.90
2018-06-01T19:15:34.598Z,99.90
2018-06-01T19:18:03.862Z,99.90
2018-06-01T19:20:33.145Z,99.90
2018-06-01T19:23:02.415Z,99.90
2018-06-01T19:25:31.672Z,99.90
2018-06-01T19:28:00.970Z,99.90
2018-06-01T19:30:30.260Z,99.90
2018-06-01T19:32:59.533Z,99.90
2018-06-01T19:35:29.645Z,99.90
2018-06-01T19:37:59.680Z,99.90
2018-06-01T19:40:28.977Z,99.90
2018-06-01T19:42:58.978Z,99.90
2018-06-01T19:45:28.352Z,99.90
2018-06-01T19:47:57.670Z,99.90
2018-06-01T19:50:27.740Z,99.90
2018-06-01T19:52:57.028Z,99.90
2018-06-01T19:55:26.314Z,99.90
2018-06-01T19:57:55.646Z,99.90
2018-06-01T20:00:24.922Z,99.90
2018-06-01T20:02:54.331Z,99.90
2018-06-01T20:05:23.629Z,99.90
2018-06-01T20:07:52.953Z,99.90
2018-06-01T20:10:22.247Z,99.90
2018-06-01T20:12:51.528Z,99.90
2018-06-01T20:15:20.841Z,99.90
2018-06-01T20:17:50.142Z,99.90
2018-06-01T20:20:19.414Z,99.90
2018-06-01T20:22:49.474Z,99.90
2018-06-01T20:25:18.729Z,99.90
2018-06-01T20:27:52.936Z,99.90
2018-06-01T20:30:22.203Z,99.90
2018-06-01T20:32:51.493Z,99.90
2018-06-01T20:35:20.774Z,99.90
2018-06-01T20:37:50.067Z,99.90
2018-06-01T20:40:19.396Z,99.90
2018-06-01T20:42:48.650Z,99.90
2018-06-01T20:45:19.641Z,99.90
2018-06-01T20:47:48.925Z,99.90
2018-06-01T20:50:18.179Z,99.90
2018-06-01T20:52:48.263Z,99.90
2018-06-01T20:55:17.569Z,99.90
2018-06-01T20:57:46.847Z,99.90
2018-06-01T21:00:16.122Z,99.90
2018-06-01T21:02:45.419Z,99.90
2018-06-01T21:05:15.455Z,99.90
2018-06-01T21:07:48.451Z,99.90
2018-06-01T21:10:17.924Z,99.90
2018-06-01T21:12:47.963Z,99.90
2018-06-01T21:15:17.220Z,99.90
2018-06-01T21:17:47.989Z,99.90
2018-06-01T21:20:17.281Z,99.90
2018-06-01T21:22:47.318Z,99.90
2018-06-01T21:25:17.479Z,99.90
2018-06-01T21:27:48.284Z,99.90
2018-06-01T21:30:17.560Z,99.90
2018-06-01T21:32:46.868Z,99.90
2018-06-01T21:35:16.118Z,99.90
2018-06-01T21:37:46.180Z,99.90
2018-06-01T21:40:15.530Z,99.90
2018-06-01T21:42:44.798Z,99.90
2018-06-01T21:45:14.063Z,99.90
2018-06-01T21:47:44.106Z,99.90
2018-06-01T21:50:13.400Z,99.90
2018-06-01T21:52:43.467Z,99.90
2018-06-01T21:55:12.822Z,99.90
2018-06-01T21:57:42.835Z,99.90
2018-06-01T22:00:12.150Z,99.90
2018-06-01T22:02:41.440Z,99.90
2018-06-01T22:05:10.764Z,99.90
2018-06-01T22:07:40.085Z,99.90
2018-06-01T22:10:09.342Z,99.90
2018-06-01T22:12:38.636Z,99.90
2018-06-01T22:15:07.932Z,99.90
2018-06-01T22:17:37.193Z,99.90
2018-06-01T22:20:06.434Z,99.90
2018-06-01T22:22:35.738Z,99.90
2018-06-01T22:25:05.104Z,99.90
2018-06-01T22:27:34.376Z,99.90
2018-06-01T22:30:03.643Z,99.90
2018-06-01T22:32:32.932Z,99.90
2018-06-01T22:35:02.960Z,99.90
2018-06-01T22:37:32.229Z,99.90
2018-06-01T22:40:02.320Z,99.90
2018-06-01T22:42:31.998Z,99.90
2018-06-01T22:45:01.289Z,99.90
2018-06-01T22:47:30.573Z,99.90
2018-06-01T22:50:00.655Z,99.90
2018-06-01T22:52:29.996Z,99.90
2018-06-01T22:55:00.033Z,99.90
2018-06-01T22:57:29.305Z,99.90
2018-06-01T22:59:59.351Z,99.90
2018-06-01T23:02:28.630Z,99.90
2018-06-01T23:04:58.666Z,99.90
2018-06-01T23:07:27.933Z,99.90
2018-06-01T23:09:57.201Z,99.90
2018-06-01T23:12:26.556Z,99.90
2018-06-01T23:14:57.249Z,99.90
2018-06-01T23:17:26.537Z,99.90
2018-06-01T23:19:55.806Z,99.90
2018-06-01T23:22:25.079Z,99.90
2018-06-01T23:24:55.121Z,99.90
2018-06-01T23:27:24.414Z,99.90
2018-06-01T23:29:53.726Z,99.90
2018-06-01T23:32:23.052Z,99.90
2018-06-01T23:34:52.295Z,99.90
2018-06-01T23:37:22.380Z,99.90
2018-06-01T23:39:51.639Z,99.90
2018-06-01T23:42:20.873Z,99.90
2018-06-01T23:44:50.935Z,99.90
2018-06-01T23:47:21.041Z,99.90
2018-06-01T23:49:51.084Z,99.90
2018-06-01T23:52:20.371Z,99.90
2018-06-01T23:54:49.796Z,99.90
2018-06-01T23:57:19.061Z,99.90
2018-06-01T23:59:49.099Z,99.90
